sensor_id;sensor_type;location;lat;lon;timestamp;temperature;humidity
24152;DHT22;12311;50.866;4.332;2023-05-10T00:00:52;13.10;99.90
24152;DHT22;12311;50.866;4.332;2023-05-10T00:03:18;13.00;99.90
24152;DHT22;12311;50.866;4.332;2023-05-10T00:05:44;13.10;99.90
24152;DHT22;12311;50.866;4.332;2023-05-10T00:08:09;13.00;99.90
24152;DHT22;12311;50.866;4.332;2023-05-10T00:10:35;13.10;99.90
24152;DHT22;12311;50.866;4.332;2023-05-10T00:13:02;13.10;99.90
24152;DHT22;12311;50.866;4.332;2023-05-10T00:15:28;13.10;99.90
24152;DHT22;12311;50.866;4.332;2023-05-10T00:17:56;13.10;99.90
24152;DHT22;12311;50.866;4.332;2023-05-10T00:20:22;13.10;99.90
24152;DHT22;12311;50.866;4.332;2023-05-10T00:22:47;13.10;99.90
24152;DHT22;12311;50.866;4.332;2023-05-10T00:25:13;13.10;99.90
24152;DHT22;12311;50.866;4.332;2023-05-10T00:27:39;13.10;99.90
24152;DHT22;12311;50.866;4.332;2023-05-10T00:30:05;13.20;99.90
24152;DHT22;12311;50.866;4.332;2023-05-10T00:32:31;13.20;99.90
24152;DHT22;12311;50.866;4.332;2023-05-10T00:34:57;13.30;99.90
24152;DHT22;12311;50.866;4.332;2023-05-10T00:37:23;13.40;99.90
24152;DHT22;12311;50.866;4.332;2023-05-10T00:39:48;13.40;99.90
24152;DHT22;12311;50.866;4.332;2023-05-10T00:42:14;13.50;99.90
24152;DHT22;12311;50.866;4.332;2023-05-10T00:44:40;13.50;99.90
24152;DHT22;12311;50.866;4.332;2023-05-10T00:47:06;13.50;99.90
24152;DHT22;12311;50.866;4.332;2023-05-10T00:49:32;13.30;99.90
24152;DHT22;12311;50.866;4.332;2023-05-10T00:51:58;13.30;99.90
24152;DHT22;12311;50.866;4.332;2023-05-10T00:54:23;13.30;99.90
24152;DHT22;12311;50.866;4.332;2023-05-10T00:56:49;13.30;99.90
24152;DHT22;12311;50.866;4.332;2023-05-10T00:59:16;13.30;99.90
24152;DHT22;12311;50.866;4.332;2023-05-10T01:01:44;13.30;99.90
24152;DHT22;12311;50.866;4.332;2023-05-10T01:04:11;13.30;99.90
24152;DHT22;12311;50.866;4.332;2023-05-10T01:06:38;13.20;99.90
24152;DHT22;12311;50.866;4.332;2023-05-10T01:09:04;13.30;99.90
24152;DHT22;12311;50.866;4.332;2023-05-10T01:11:36;13.20;99.90
24152;DHT22;12311;50.866;4.332;2023-05-10T01:14:03;13.30;99.90
24152;DHT22;12311;50.866;4.332;2023-05-10T01:16:33;13.30;99.90
24152;DHT22;12311;50.866;4.332;2023-05-10T01:19:01;13.30;99.90
24152;DHT22;12311;50.866;4.332;2023-05-10T01:21:33;13.20;99.90
24152;DHT22;12311;50.866;4.332;2023-05-10T01:24:17;13.20;99.90
24152;DHT22;12311;50.866;4.332;2023-05-10T01:30:05;13.20;99.90
24152;DHT22;12311;50.866;4.332;2023-05-10T01:38:19;13.20;99.90
24152;DHT22;12311;50.866;4.332;2023-05-10T01:43:25;13.20;99.90
24152;DHT22;12311;50.866;4.332;2023-05-10T01:46:01;13.30;99.90
24152;DHT22;12311;50.866;4.332;2023-05-10T01:48:30;13.30;99.90
24152;DHT22;12311;50.866;4.332;2023-05-10T01:50:56;13.30;99.90
24152;DHT22;12311;50.866;4.332;2023-05-10T01:53:23;13.30;99.90
24152;DHT22;12311;50.866;4.332;2023-05-10T01:55:52;13.30;99.90
24152;DHT22;12311;50.866;4.332;2023-05-10T01:58:29;13.30;99.90
24152;DHT22;12311;50.866;4.332;2023-05-10T02:00:57;13.40;99.90
24152;DHT22;12311;50.866;4.332;2023-05-10T02:03:25;13.40;99.90
24152;DHT22;12311;50.866;4.332;2023-05-10T02:05:53;13.30;99.90
24152;DHT22;12311;50.866;4.332;2023-05-10T02:08:20;13.30;99.90
24152;DHT22;12311;50.866;4.332;2023-05-10T02:10:49;13.30;99.90
24152;DHT22;12311;50.866;4.332;2023-05-10T02:13:16;13.40;99.90
24152;DHT22;12311;50.866;4.332;2023-05-10T02:15:45;13.50;99.90
24152;DHT22;12311;50.866;4.332;2023-05-10T02:18:13;13.40;99.90
24152;DHT22;12311;50.866;4.332;2023-05-10T02:20:40;13.50;99.90
24152;DHT22;12311;50.866;4.332;2023-05-10T02:23:06;13.40;99.90
24152;DHT22;12311;50.866;4.332;2023-05-10T02:25:34;13.40;99.90
24152;DHT22;12311;50.866;4.332;2023-05-10T02:28:03;13.40;99.90
24152;DHT22;12311;50.866;4.332;2023-05-10T02:30:31;13.40;99.90
24152;DHT22;12311;50.866;4.332;2023-05-10T02:32:57;13.40;99.90
24152;DHT22;12311;50.866;4.332;2023-05-10T02:35:26;13.40;99.90
24152;DHT22;12311;50.866;4.332;2023-05-10T02:37:52;13.40;99.90
24152;DHT22;12311;50.866;4.332;2023-05-10T02:40:19;13.40;99.90
24152;DHT22;12311;50.866;4.332;2023-05-10T02:42:47;13.40;99.90
24152;DHT22;12311;50.866;4.332;2023-05-10T02:45:21;13.40;99.90
24152;DHT22;12311;50.866;4.332;2023-05-10T02:47:49;13.30;99.90
24152;DHT22;12311;50.866;4.332;2023-05-10T02:50:15;13.30;99.90
24152;DHT22;12311;50.866;4.332;2023-05-10T02:52:47;13.30;99.90
24152;DHT22;12311;50.866;4.332;2023-05-10T02:55:16;13.40;99.90
24152;DHT22;12311;50.866;4.332;2023-05-10T02:57:48;13.40;99.90
24152;DHT22;12311;50.866;4.332;2023-05-10T03:00:16;13.40;99.90
24152;DHT22;12311;50.866;4.332;2023-05-10T03:02:42;13.40;99.90
24152;DHT22;12311;50.866;4.332;2023-05-10T03:05:07;13.40;99.90
24152;DHT22;12311;50.866;4.332;2023-05-10T03:07:33;13.50;99.90
24152;DHT22;12311;50.866;4.332;2023-05-10T03:10:00;13.60;99.90
24152;DHT22;12311;50.866;4.332;2023-05-10T03:18:33;13.60;99.90
24152;DHT22;12311;50.866;4.332;2023-05-10T03:21:04;13.40;99.90
24152;DHT22;12311;50.866;4.332;2023-05-10T03:23:55;13.30;99.90
24152;DHT22;12311;50.866;4.332;2023-05-10T03:26:25;13.40;99.90
24152;DHT22;12311;50.866;4.332;2023-05-10T03:28:52;13.30;99.90
24152;DHT22;12311;50.866;4.332;2023-05-10T03:31:18;13.20;99.90
24152;DHT22;12311;50.866;4.332;2023-05-10T03:33:52;13.20;99.90
24152;DHT22;12311;50.866;4.332;2023-05-10T03:36:18;13.20;99.90
24152;DHT22;12311;50.866;4.332;2023-05-10T03:38:44;13.20;99.90
24152;DHT22;12311;50.866;4.332;2023-05-10T03:41:10;13.20;99.90
24152;DHT22;12311;50.866;4.332;2023-05-10T03:43:36;13.20;99.90
24152;DHT22;12311;50.866;4.332;2023-05-10T03:46:05;13.20;99.90
24152;DHT22;12311;50.866;4.332;2023-05-10T03:48:32;13.20;99.90
24152;DHT22;12311;50.866;4.332;2023-05-10T03:50:58;13.20;99.90
24152;DHT22;12311;50.866;4.332;2023-05-10T03:53:24;13.20;99.90
24152;DHT22;12311;50.866;4.332;2023-05-10T03:55:49;13.20;99.90
24152;DHT22;12311;50.866;4.332;2023-05-10T03:58:15;13.20;99.90
24152;DHT22;12311;50.866;4.332;2023-05-10T04:00:41;13.20;99.90
24152;DHT22;12311;50.866;4.332;2023-05-10T04:03:12;13.10;99.90
24152;DHT22;12311;50.866;4.332;2023-05-10T04:05:38;13.20;99.90
24152;DHT22;12311;50.866;4.332;2023-05-10T04:08:04;13.20;99.90
24152;DHT22;12311;50.866;4.332;2023-05-10T04:10:30;13.30;99.90
24152;DHT22;12311;50.866;4.332;2023-05-10T04:12:56;13.20;99.90
24152;DHT22;12311;50.866;4.332;2023-05-10T04:15:22;13.40;99.90
24152;DHT22;12311;50.866;4.332;2023-05-10T04:17:49;13.30;99.90
24152;DHT22;12311;50.866;4.332;2023-05-10T04:20:14;13.20;99.90
24152;DHT22;12311;50.866;4.332;2023-05-10T04:22:40;13.30;99.90
24152;DHT22;12311;50.866;4.332;2023-05-10T04:25:06;13.30;99.90
24152;DHT22;12311;50.866;4.332;2023-05-10T04:27:32;13.30;99.90
24152;DHT22;12311;50.866;4.332;2023-05-10T04:29:58;13.30;99.90
24152;DHT22;12311;50.866;4.332;2023-05-10T04:32:24;13.30;99.90
24152;DHT22;12311;50.866;4.332;2023-05-10T04:34:50;13.30;99.90
24152;DHT22;12311;50.866;4.332;2023-05-10T04:37:18;13.30;99.90
24152;DHT22;12311;50.866;4.332;2023-05-10T04:39:45;13.30;99.90
24152;DHT22;12311;50.866;4.332;2023-05-10T04:42:10;13.20;99.90
24152;DHT22;12311;50.866;4.332;2023-05-10T04:44:37;13.20;99.90
24152;DHT22;12311;50.866;4.332;2023-05-10T04:47:03;13.30;99.90
24152;DHT22;12311;50.866;4.332;2023-05-10T04:49:29;13.40;99.90
24152;DHT22;12311;50.866;4.332;2023-05-10T04:51:55;13.50;99.90
24152;DHT22;12311;50.866;4.332;2023-05-10T04:54:21;13.40;99.90
24152;DHT22;12311;50.866;4.332;2023-05-10T04:56:46;13.30;99.90
24152;DHT22;12311;50.866;4.332;2023-05-10T04:59:12;13.30;99.90
24152;DHT22;12311;50.866;4.332;2023-05-10T05:01:38;13.30;99.90
24152;DHT22;12311;50.866;4.332;2023-05-10T05:04:04;13.30;99.90
24152;DHT22;12311;50.866;4.332;2023-05-10T05:06:30;13.30;99.90
24152;DHT22;12311;50.866;4.332;2023-05-10T05:08:55;13.30;99.90
24152;DHT22;12311;50.866;4.332;2023-05-10T05:11:21;13.30;99.90
24152;DHT22;12311;50.866;4.332;2023-05-10T05:13:47;13.40;99.90
24152;DHT22;12311;50.866;4.332;2023-05-10T05:16:13;13.40;99.90
24152;DHT22;12311;50.866;4.332;2023-05-10T05:18:38;13.30;99.90
24152;DHT22;12311;50.866;4.332;2023-05-10T05:21:16;13.30;99.90
24152;DHT22;12311;50.866;4.332;2023-05-10T05:23:42;13.40;99.90
24152;DHT22;12311;50.866;4.332;2023-05-10T05:26:07;13.40;99.90
24152;DHT22;12311;50.866;4.332;2023-05-10T05:28:33;13.40;99.90
24152;DHT22;12311;50.866;4.332;2023-05-10T05:31:03;13.50;99.90
24152;DHT22;12311;50.866;4.332;2023-05-10T05:33:28;13.60;99.90
24152;DHT22;12311;50.866;4.332;2023-05-10T05:35:54;13.60;99.90
24152;DHT22;12311;50.866;4.332;2023-05-10T05:38:20;13.70;99.90
24152;DHT22;12311;50.866;4.332;2023-05-10T05:40:45;13.70;99.90
24152;DHT22;12311;50.866;4.332;2023-05-10T05:43:11;13.70;99.90
24152;DHT22;12311;50.866;4.332;2023-05-10T05:45:40;13.50;99.90
24152;DHT22;12311;50.866;4.332;2023-05-10T05:48:06;13.50;99.90
24152;DHT22;12311;50.866;4.332;2023-05-10T05:50:31;13.40;99.90
24152;DHT22;12311;50.866;4.332;2023-05-10T05:52:57;13.50;99.90
24152;DHT22;12311;50.866;4.332;2023-05-10T05:55:23;13.40;99.90
24152;DHT22;12311;50.866;4.332;2023-05-10T05:57:49;13.40;99.90
24152;DHT22;12311;50.866;4.332;2023-05-10T06:00:15;13.50;99.90
24152;DHT22;12311;50.866;4.332;2023-05-10T06:02:41;13.60;99.90
24152;DHT22;12311;50.866;4.332;2023-05-10T06:05:07;13.60;99.90
24152;DHT22;12311;50.866;4.332;2023-05-10T06:07:33;13.60;99.90
24152;DHT22;12311;50.866;4.332;2023-05-10T06:09:59;13.60;99.90
24152;DHT22;12311;50.866;4.332;2023-05-10T06:12:25;13.60;99.90
24152;DHT22;12311;50.866;4.332;2023-05-10T06:14:50;13.50;99.90
24152;DHT22;12311;50.866;4.332;2023-05-10T06:17:16;13.50;99.90
24152;DHT22;12311;50.866;4.332;2023-05-10T06:19:42;13.50;99.90
24152;DHT22;12311;50.866;4.332;2023-05-10T06:22:07;13.40;99.90
24152;DHT22;12311;50.866;4.332;2023-05-10T06:24:33;13.40;99.90
24152;DHT22;12311;50.866;4.332;2023-05-10T06:26:59;13.40;99.90
24152;DHT22;12311;50.866;4.332;2023-05-10T06:29:25;13.50;99.90
24152;DHT22;12311;50.866;4.332;2023-05-10T06:31:51;13.60;99.90
24152;DHT22;12311;50.866;4.332;2023-05-10T06:34:17;13.70;99.90
24152;DHT22;12311;50.866;4.332;2023-05-10T06:36:42;13.70;99.90
24152;DHT22;12311;50.866;4.332;2023-05-10T06:39:08;13.50;99.90
24152;DHT22;12311;50.866;4.332;2023-05-10T06:41:34;13.40;99.90
24152;DHT22;12311;50.866;4.332;2023-05-10T06:43:59;13.40;99.90
24152;DHT22;12311;50.866;4.332;2023-05-10T06:46:25;13.30;99.90
24152;DHT22;12311;50.866;4.332;2023-05-10T06:48:51;13.30;99.90
24152;DHT22;12311;50.866;4.332;2023-05-10T06:51:16;13.20;99.90
24152;DHT22;12311;50.866;4.332;2023-05-10T06:53:42;13.10;99.90
24152;DHT22;12311;50.866;4.332;2023-05-10T06:56:08;13.00;99.90
24152;DHT22;12311;50.866;4.332;2023-05-10T06:58:34;13.00;99.90
24152;DHT22;12311;50.866;4.332;2023-05-10T07:01:04;12.90;99.90
24152;DHT22;12311;50.866;4.332;2023-05-10T07:03:30;12.90;99.90
24152;DHT22;12311;50.866;4.332;2023-05-10T07:06:03;13.00;99.90
24152;DHT22;12311;50.866;4.332;2023-05-10T07:08:33;13.00;99.90
24152;DHT22;12311;50.866;4.332;2023-05-10T07:11:03;12.90;99.90
24152;DHT22;12311;50.866;4.332;2023-05-10T07:13:31;13.00;99.90
24152;DHT22;12311;50.866;4.332;2023-05-10T07:15:57;12.90;99.90
24152;DHT22;12311;50.866;4.332;2023-05-10T07:18:24;12.90;99.90
24152;DHT22;12311;50.866;4.332;2023-05-10T07:20:50;13.10;99.90
24152;DHT22;12311;50.866;4.332;2023-05-10T07:23:15;13.10;99.90
24152;DHT22;12311;50.866;4.332;2023-05-10T07:25:48;13.10;99.90
24152;DHT22;12311;50.866;4.332;2023-05-10T07:28:15;13.10;99.90
24152;DHT22;12311;50.866;4.332;2023-05-10T07:30:41;13.10;99.90
24152;DHT22;12311;50.866;4.332;2023-05-10T07:33:08;13.00;99.90
24152;DHT22;12311;50.866;4.332;2023-05-10T07:35:35;13.10;99.90
24152;DHT22;12311;50.866;4.332;2023-05-10T07:38:01;13.20;99.90
24152;DHT22;12311;50.866;4.332;2023-05-10T07:40:27;13.10;99.90
24152;DHT22;12311;50.866;4.332;2023-05-10T07:42:53;13.10;99.90
24152;DHT22;12311;50.866;4.332;2023-05-10T07:45:19;12.90;99.90
24152;DHT22;12311;50.866;4.332;2023-05-10T07:47:45;12.90;99.90
24152;DHT22;12311;50.866;4.332;2023-05-10T07:50:11;12.90;99.90
24152;DHT22;12311;50.866;4.332;2023-05-10T07:52:36;12.90;99.90
24152;DHT22;12311;50.866;4.332;2023-05-10T07:55:02;12.90;99.90
24152;DHT22;12311;50.866;4.332;2023-05-10T07:57:28;13.00;99.90
24152;DHT22;12311;50.866;4.332;2023-05-10T07:59:54;13.10;99.90
24152;DHT22;12311;50.866;4.332;2023-05-10T08:02:19;13.10;99.90
24152;DHT22;12311;50.866;4.332;2023-05-10T08:04:45;13.10;99.90
24152;DHT22;12311;50.866;4.332;2023-05-10T08:07:11;13.20;99.90
24152;DHT22;12311;50.866;4.332;2023-05-10T08:09:36;13.20;99.90
24152;DHT22;12311;50.866;4.332;2023-05-10T08:12:02;13.20;99.90
24152;DHT22;12311;50.866;4.332;2023-05-10T08:14:29;13.20;99.90
24152;DHT22;12311;50.866;4.332;2023-05-10T08:16:55;13.30;99.90
24152;DHT22;12311;50.866;4.332;2023-05-10T08:19:21;13.40;99.90
24152;DHT22;12311;50.866;4.332;2023-05-10T08:21:48;13.40;99.90
24152;DHT22;12311;50.866;4.332;2023-05-10T08:24:14;13.40;99.90
24152;DHT22;12311;50.866;4.332;2023-05-10T08:26:39;13.40;99.90
24152;DHT22;12311;50.866;4.332;2023-05-10T08:29:05;13.30;99.90
24152;DHT22;12311;50.866;4.332;2023-05-10T08:31:31;13.40;99.90
24152;DHT22;12311;50.866;4.332;2023-05-10T08:33:57;13.30;99.90
24152;DHT22;12311;50.866;4.332;2023-05-10T08:36:22;13.40;99.90
24152;DHT22;12311;50.866;4.332;2023-05-10T08:38:53;13.40;99.90
24152;DHT22;12311;50.866;4.332;2023-05-10T08:41:23;13.30;99.90
24152;DHT22;12311;50.866;4.332;2023-05-10T08:43:51;13.60;99.90
24152;DHT22;12311;50.866;4.332;2023-05-10T08:46:18;13.80;99.90
24152;DHT22;12311;50.866;4.332;2023-05-10T08:48:48;13.80;99.90
24152;DHT22;12311;50.866;4.332;2023-05-10T08:51:18;14.00;99.90
24152;DHT22;12311;50.866;4.332;2023-05-10T08:53:45;13.90;99.90
24152;DHT22;12311;50.866;4.332;2023-05-10T08:56:11;13.90;99.90
24152;DHT22;12311;50.866;4.332;2023-05-10T08:58:38;13.90;99.90
24152;DHT22;12311;50.866;4.332;2023-05-10T09:01:05;13.80;99.90
24152;DHT22;12311;50.866;4.332;2023-05-10T09:03:31;13.70;99.90
24152;DHT22;12311;50.866;4.332;2023-05-10T09:05:57;13.40;99.90
24152;DHT22;12311;50.866;4.332;2023-05-10T09:08:24;13.60;99.90
24152;DHT22;12311;50.866;4.332;2023-05-10T09:10:54;13.70;99.90
24152;DHT22;12311;50.866;4.332;2023-05-10T09:13:21;13.70;99.90
24152;DHT22;12311;50.866;4.332;2023-05-10T09:15:47;13.80;99.90
24152;DHT22;12311;50.866;4.332;2023-05-10T09:18:13;13.90;99.90
24152;DHT22;12311;50.866;4.332;2023-05-10T09:20:40;13.70;99.90
24152;DHT22;12311;50.866;4.332;2023-05-10T09:23:06;13.50;99.90
24152;DHT22;12311;50.866;4.332;2023-05-10T09:25:32;13.40;99.90
24152;DHT22;12311;50.866;4.332;2023-05-10T09:28:01;13.30;99.90
24152;DHT22;12311;50.866;4.332;2023-05-10T09:30:30;13.30;99.90
24152;DHT22;12311;50.866;4.332;2023-05-10T09:32:57;13.20;99.90
24152;DHT22;12311;50.866;4.332;2023-05-10T09:35:25;13.10;99.90
24152;DHT22;12311;50.866;4.332;2023-05-10T09:37:53;13.10;99.90
24152;DHT22;12311;50.866;4.332;2023-05-10T09:40:21;13.10;99.90
24152;DHT22;12311;50.866;4.332;2023-05-10T09:42:58;13.10;99.90
24152;DHT22;12311;50.866;4.332;2023-05-10T09:45:29;13.20;99.90
24152;DHT22;12311;50.866;4.332;2023-05-10T09:47:56;13.10;99.90
24152;DHT22;12311;50.866;4.332;2023-05-10T09:50:22;13.20;99.90
24152;DHT22;12311;50.866;4.332;2023-05-10T09:55:16;13.30;99.90
24152;DHT22;12311;50.866;4.332;2023-05-10T09:57:42;13.30;99.90
24152;DHT22;12311;50.866;4.332;2023-05-10T10:00:09;13.50;99.90
24152;DHT22;12311;50.866;4.332;2023-05-10T10:02:39;13.60;99.90
24152;DHT22;12311;50.866;4.332;2023-05-10T10:05:06;13.70;99.90
24152;DHT22;12311;50.866;4.332;2023-05-10T10:07:32;13.50;99.90
24152;DHT22;12311;50.866;4.332;2023-05-10T10:09:59;13.40;99.90
24152;DHT22;12311;50.866;4.332;2023-05-10T10:12:25;13.40;99.90
24152;DHT22;12311;50.866;4.332;2023-05-10T10:14:52;13.50;99.90
24152;DHT22;12311;50.866;4.332;2023-05-10T10:17:19;13.40;99.90
24152;DHT22;12311;50.866;4.332;2023-05-10T10:19:45;13.20;99.90
24152;DHT22;12311;50.866;4.332;2023-05-10T10:22:12;13.40;99.90
24152;DHT22;12311;50.866;4.332;2023-05-10T10:24:38;13.50;99.90
24152;DHT22;12311;50.866;4.332;2023-05-10T10:27:24;13.70;99.90
24152;DHT22;12311;50.866;4.332;2023-05-10T10:34:49;13.40;99.90
24152;DHT22;12311;50.866;4.332;2023-05-10T10:37:15;13.60;99.90
24152;DHT22;12311;50.866;4.332;2023-05-10T10:39:41;13.80;99.90
24152;DHT22;12311;50.866;4.332;2023-05-10T10:42:07;14.10;99.90
24152;DHT22;12311;50.866;4.332;2023-05-10T10:44:34;14.20;99.90
24152;DHT22;12311;50.866;4.332;2023-05-10T10:49:43;14.40;99.90
24152;DHT22;12311;50.866;4.332;2023-05-10T10:52:32;14.20;99.90
24152;DHT22;12311;50.866;4.332;2023-05-10T10:54:59;13.90;99.90
24152;DHT22;12311;50.866;4.332;2023-05-10T10:57:26;14.20;99.90
24152;DHT22;12311;50.866;4.332;2023-05-10T11:03:04;14.50;99.90
24152;DHT22;12311;50.866;4.332;2023-05-10T11:05:42;14.40;99.90
24152;DHT22;12311;50.866;4.332;2023-05-10T11:08:33;14.50;99.90
24152;DHT22;12311;50.866;4.332;2023-05-10T11:13:32;14.40;99.90
24152;DHT22;12311;50.866;4.332;2023-05-10T11:15:59;14.60;99.90
24152;DHT22;12311;50.866;4.332;2023-05-10T11:18:28;14.70;99.90
24152;DHT22;12311;50.866;4.332;2023-05-10T11:21:02;14.80;99.90
24152;DHT22;12311;50.866;4.332;2023-05-10T11:26:07;15.00;99.90
24152;DHT22;12311;50.866;4.332;2023-05-10T11:28:40;14.90;99.90
24152;DHT22;12311;50.866;4.332;2023-05-10T11:31:06;15.00;99.90
24152;DHT22;12311;50.866;4.332;2023-05-10T11:33:45;15.00;99.90
24152;DHT22;12311;50.866;4.332;2023-05-10T11:36:24;15.10;99.90
24152;DHT22;12311;50.866;4.332;2023-05-10T11:38:51;15.10;99.90
24152;DHT22;12311;50.866;4.332;2023-05-10T11:41:18;15.10;99.90
24152;DHT22;12311;50.866;4.332;2023-05-10T11:43:46;15.10;99.90
24152;DHT22;12311;50.866;4.332;2023-05-10T11:46:13;15.10;99.90
24152;DHT22;12311;50.866;4.332;2023-05-10T11:48:40;14.90;99.90
24152;DHT22;12311;50.866;4.332;2023-05-10T11:51:10;15.00;99.90
24152;DHT22;12311;50.866;4.332;2023-05-10T11:53:36;15.10;99.90
24152;DHT22;12311;50.866;4.332;2023-05-10T11:56:05;15.00;99.90
24152;DHT22;12311;50.866;4.332;2023-05-10T11:58:31;15.00;99.90
24152;DHT22;12311;50.866;4.332;2023-05-10T12:00:58;15.20;99.90
24152;DHT22;12311;50.866;4.332;2023-05-10T12:03:25;15.30;99.90
24152;DHT22;12311;50.866;4.332;2023-05-10T12:05:50;15.10;99.90
24152;DHT22;12311;50.866;4.332;2023-05-10T12:08:21;15.30;99.90
24152;DHT22;12311;50.866;4.332;2023-05-10T12:10:47;15.50;99.90
24152;DHT22;12311;50.866;4.332;2023-05-10T12:13:17;15.50;99.90
24152;DHT22;12311;50.866;4.332;2023-05-10T12:15:43;15.60;99.90
24152;DHT22;12311;50.866;4.332;2023-05-10T12:18:10;15.70;99.90
24152;DHT22;12311;50.866;4.332;2023-05-10T12:20:36;15.80;99.90
24152;DHT22;12311;50.866;4.332;2023-05-10T12:23:02;15.60;99.90
24152;DHT22;12311;50.866;4.332;2023-05-10T12:25:36;15.70;99.90
24152;DHT22;12311;50.866;4.332;2023-05-10T12:28:09;15.70;99.90
24152;DHT22;12311;50.866;4.332;2023-05-10T12:30:35;15.70;99.90
24152;DHT22;12311;50.866;4.332;2023-05-10T12:33:06;15.70;99.90
24152;DHT22;12311;50.866;4.332;2023-05-10T12:35:33;15.90;99.90
24152;DHT22;12311;50.866;4.332;2023-05-10T12:37:59;16.00;99.90
24152;DHT22;12311;50.866;4.332;2023-05-10T12:40:25;16.20;99.90
24152;DHT22;12311;50.866;4.332;2023-05-10T12:42:51;16.10;99.90
24152;DHT22;12311;50.866;4.332;2023-05-10T12:45:18;16.40;99.90
24152;DHT22;12311;50.866;4.332;2023-05-10T12:47:43;16.40;99.90
24152;DHT22;12311;50.866;4.332;2023-05-10T12:50:09;16.80;99.90
24152;DHT22;12311;50.866;4.332;2023-05-10T12:52:35;16.70;99.90
24152;DHT22;12311;50.866;4.332;2023-05-10T12:55:02;17.00;99.90
24152;DHT22;12311;50.866;4.332;2023-05-10T12:57:28;17.20;99.90
24152;DHT22;12311;50.866;4.332;2023-05-10T12:59:54;17.30;99.90
24152;DHT22;12311;50.866;4.332;2023-05-10T13:02:20;17.70;99.90
24152;DHT22;12311;50.866;4.332;2023-05-10T13:04:48;18.30;99.90
24152;DHT22;12311;50.866;4.332;2023-05-10T13:07:14;18.30;99.90
24152;DHT22;12311;50.866;4.332;2023-05-10T13:09:40;18.20;99.90
24152;DHT22;12311;50.866;4.332;2023-05-10T13:12:05;18.70;99.90
24152;DHT22;12311;50.866;4.332;2023-05-10T13:14:31;18.90;99.90
24152;DHT22;12311;50.866;4.332;2023-05-10T13:16:57;19.70;99.90
24152;DHT22;12311;50.866;4.332;2023-05-10T13:19:23;19.30;99.90
24152;DHT22;12311;50.866;4.332;2023-05-10T13:21:48;19.20;99.90
24152;DHT22;12311;50.866;4.332;2023-05-10T13:24:14;20.00;99.90
24152;DHT22;12311;50.866;4.332;2023-05-10T13:26:40;20.50;99.90
24152;DHT22;12311;50.866;4.332;2023-05-10T13:29:06;20.70;99.90
24152;DHT22;12311;50.866;4.332;2023-05-10T13:31:33;21.10;99.90
24152;DHT22;12311;50.866;4.332;2023-05-10T13:33:58;21.00;99.90
24152;DHT22;12311;50.866;4.332;2023-05-10T13:36:24;20.90;99.90
24152;DHT22;12311;50.866;4.332;2023-05-10T13:38:50;21.00;99.90
24152;DHT22;12311;50.866;4.332;2023-05-10T13:41:15;20.70;99.90
24152;DHT22;12311;50.866;4.332;2023-05-10T13:43:41;20.60;99.90
24152;DHT22;12311;50.866;4.332;2023-05-10T13:46:07;20.60;99.90
24152;DHT22;12311;50.866;4.332;2023-05-10T13:48:32;20.10;99.90
24152;DHT22;12311;50.866;4.332;2023-05-10T13:50:58;20.10;99.90
24152;DHT22;12311;50.866;4.332;2023-05-10T13:53:24;20.10;99.90
24152;DHT22;12311;50.866;4.332;2023-05-10T13:55:50;19.80;99.90
24152;DHT22;12311;50.866;4.332;2023-05-10T13:58:15;19.80;99.90
24152;DHT22;12311;50.866;4.332;2023-05-10T14:00:41;19.70;99.90
24152;DHT22;12311;50.866;4.332;2023-05-10T14:03:07;19.50;99.90
24152;DHT22;12311;50.866;4.332;2023-05-10T14:05:34;19.00;99.90
24152;DHT22;12311;50.866;4.332;2023-05-10T14:08:00;18.40;99.90
24152;DHT22;12311;50.866;4.332;2023-05-10T14:10:25;18.40;99.90
24152;DHT22;12311;50.866;4.332;2023-05-10T14:12:51;18.50;99.90
24152;DHT22;12311;50.866;4.332;2023-05-10T14:15:17;18.60;99.90
24152;DHT22;12311;50.866;4.332;2023-05-10T14:17:43;19.00;99.90
24152;DHT22;12311;50.866;4.332;2023-05-10T14:20:09;19.10;99.90
24152;DHT22;12311;50.866;4.332;2023-05-10T14:22:35;19.40;99.90
24152;DHT22;12311;50.866;4.332;2023-05-10T14:25:01;19.30;99.90
24152;DHT22;12311;50.866;4.332;2023-05-10T14:27:27;19.40;99.90
24152;DHT22;12311;50.866;4.332;2023-05-10T14:29:52;19.50;99.90
24152;DHT22;12311;50.866;4.332;2023-05-10T14:32:19;19.60;99.90
24152;DHT22;12311;50.866;4.332;2023-05-10T14:34:45;19.60;99.90
24152;DHT22;12311;50.866;4.332;2023-05-10T14:37:11;19.20;99.90
24152;DHT22;12311;50.866;4.332;2023-05-10T14:39:37;18.90;99.90
24152;DHT22;12311;50.866;4.332;2023-05-10T14:42:03;18.50;99.90
24152;DHT22;12311;50.866;4.332;2023-05-10T14:44:29;18.30;99.90
24152;DHT22;12311;50.866;4.332;2023-05-10T14:46:54;18.30;99.90
24152;DHT22;12311;50.866;4.332;2023-05-10T14:49:22;18.40;99.90
24152;DHT22;12311;50.866;4.332;2023-05-10T14:51:48;18.10;99.90
24152;DHT22;12311;50.866;4.332;2023-05-10T14:54:13;17.90;99.90
24152;DHT22;12311;50.866;4.332;2023-05-10T14:56:39;17.60;99.90
24152;DHT22;12311;50.866;4.332;2023-05-10T14:59:07;17.50;99.90
24152;DHT22;12311;50.866;4.332;2023-05-10T15:01:33;17.00;99.90
24152;DHT22;12311;50.866;4.332;2023-05-10T15:04:00;16.50;99.90
24152;DHT22;12311;50.866;4.332;2023-05-10T15:06:33;16.10;99.90
24152;DHT22;12311;50.866;4.332;2023-05-10T15:09:00;16.00;99.90
24152;DHT22;12311;50.866;4.332;2023-05-10T15:11:26;15.70;99.90
24152;DHT22;12311;50.866;4.332;2023-05-10T15:13:52;15.60;99.90
24152;DHT22;12311;50.866;4.332;2023-05-10T15:16:18;15.50;99.90
24152;DHT22;12311;50.866;4.332;2023-05-10T15:18:43;15.50;99.90
24152;DHT22;12311;50.866;4.332;2023-05-10T15:21:09;15.40;99.90
24152;DHT22;12311;50.866;4.332;2023-05-10T15:23:35;15.40;99.90
24152;DHT22;12311;50.866;4.332;2023-05-10T15:26:01;15.50;99.90
24152;DHT22;12311;50.866;4.332;2023-05-10T15:28:28;15.40;99.90
24152;DHT22;12311;50.866;4.332;2023-05-10T15:30:54;15.60;99.90
24152;DHT22;12311;50.866;4.332;2023-05-10T15:33:20;15.60;99.90
24152;DHT22;12311;50.866;4.332;2023-05-10T15:35:45;15.70;99.90
24152;DHT22;12311;50.866;4.332;2023-05-10T15:38:11;15.70;99.90
24152;DHT22;12311;50.866;4.332;2023-05-10T15:40:37;15.70;99.90
24152;DHT22;12311;50.866;4.332;2023-05-10T15:43:02;15.80;99.90
24152;DHT22;12311;50.866;4.332;2023-05-10T15:45:28;15.80;99.90
24152;DHT22;12311;50.866;4.332;2023-05-10T15:47:54;16.00;99.90
24152;DHT22;12311;50.866;4.332;2023-05-10T15:50:20;16.10;99.90
24152;DHT22;12311;50.866;4.332;2023-05-10T15:52:45;16.40;99.90
24152;DHT22;12311;50.866;4.332;2023-05-10T15:55:12;16.80;99.90
24152;DHT22;12311;50.866;4.332;2023-05-10T15:57:39;17.30;99.90
24152;DHT22;12311;50.866;4.332;2023-05-10T16:00:06;17.70;99.90
24152;DHT22;12311;50.866;4.332;2023-05-10T16:02:32;18.10;99.90
24152;DHT22;12311;50.866;4.332;2023-05-10T16:04:58;18.70;99.90